Time;durP1;ratioP1;P1;durP2;ratioP2;P2;SDS_P1;SDS_P2;PMS_P1;PMS_P2;Temp;Humidity;BMP_temperature;BMP_pressure;BME280_temperature;BME280_humidity;BME280_pressure;Samples;Min_cycle;Max_cycle;Signal;HPM_P1;HPM_P2
2022/04/26 03:38:21;;;;;;;;;;;8.70;99.90;;;;;;5012280;28;20028;-75
2022/04/26 03:40:48;;;;;;;;;;;8.70;99.90;;;;;;5028230;28;19926;-74
2022/04/26 03:43:15;;;;;;;;;;;8.70;99.90;;;;;;5028177;28;20259;-75
2022/04/26 03:45:41;;;;;;;;;;;8.70;99.90;;;;;;5027730;28;19926;-75
2022/04/26 03:48:09;;;;;;;;;;;8.70;99.90;;;;;;5028379;28;19956;-74
2022/04/26 03:50:37;;;;;;;;;;;8.80;99.90;;;;;;5011439;28;19976;-76
2022/04/26 03:53:04;;;;;;;;;;;8.80;99.90;;;;;;5028132;28;19926;-76
2022/04/26 03:55:31;;;;;;;;;;;8.80;99.90;;;;;;5027748;28;20007;-76
2022/04/26 03:57:58;;;;;;;;;;;8.80;99.90;;;;;;5030749;28;19925;-76
2022/04/26 04:00:26;;;;;;;;;;;8.80;99.90;;;;;;5031648;28;20020;-76
2022/04/26 04:02:53;;;;;;;;;;;8.80;99.90;;;;;;5032421;28;19926;-75
2022/04/26 04:05:20;;;;;;;;;;;8.80;99.90;;;;;;5016190;28;20412;-76
2022/04/26 04:07:48;;;;;;;;;;;8.80;99.90;;;;;;5032787;28;19933;-76
2022/04/26 04:10:15;;;;;;;;;;;8.80;99.90;;;;;;5032060;28;19989;-76
2022/04/26 04:12:42;;;;;;;;;;;8.80;99.90;;;;;;5032467;28;19926;-76
2022/04/26 04:15:09;;;;;;;;;;;8.80;99.90;;;;;;5032066;28;19944;-75
2022/04/26 04:17:36;;;;;;;;;;;8.80;99.90;;;;;;5016337;28;19925;-76
2022/04/26 04:20:03;;;;;;;;;;;8.80;99.90;;;;;;5032066;28;19926;-76
2022/04/26 04:22:30;;;;;;;;;;;8.80;99.90;;;;;;5032432;28;19925;-76
2022/04/26 04:24:58;;;;;;;;;;;8.70;99.90;;;;;;5015292;28;20282;-76
2022/04/26 04:27:25;;;;;;;;;;;8.70;99.90;;;;;;5031646;28;19926;-76
2022/04/26 04:29:53;;;;;;;;;;;8.70;99.90;;;;;;5031055;28;19948;-75
2022/04/26 04:32:20;;;;;;;;;;;8.80;99.90;;;;;;5030373;28;20313;-77
2022/04/26 04:34:46;;;;;;;;;;;8.70;99.90;;;;;;5013629;28;19929;-76
2022/04/26 04:37:14;;;;;;;;;;;8.70;99.90;;;;;;5030519;28;19925;-76
2022/04/26 04:39:42;;;;;;;;;;;8.70;99.90;;;;;;5030296;28;20389;-76
2022/04/26 04:42:13;;;;;;;;;;;8.70;99.90;;;;;;5030947;28;19925;-76
2022/04/26 04:44:39;;;;;;;;;;;8.70;99.90;;;;;;5030859;28;20037;-76
2022/04/26 04:47:06;;;;;;;;;;;8.60;99.90;;;;;;5031055;28;19932;-76
2022/04/26 04:49:33;;;;;;;;;;;8.60;99.90;;;;;;5030936;28;19930;-76
2022/04/26 04:52:00;;;;;;;;;;;8.70;99.90;;;;;;5031137;28;19961;-76
2022/04/26 04:54:27;;;;;;;;;;;8.60;99.90;;;;;;5014113;28;19936;-76
2022/04/26 04:56:54;;;;;;;;;;;8.70;99.90;;;;;;5031344;28;19926;-76
2022/04/26 04:59:22;;;;;;;;;;;8.70;99.90;;;;;;5014230;28;20274;-76
2022/04/26 05:01:48;;;;;;;;;;;8.70;99.90;;;;;;5028828;28;19937;-76
2022/04/26 05:04:15;;;;;;;;;;;8.60;99.90;;;;;;5012529;28;19933;-76
2022/04/26 05:06:42;;;;;;;;;;;8.60;99.90;;;;;;5014823;28;19930;-76
2022/04/26 05:09:09;;;;;;;;;;;8.50;99.90;;;;;;5029883;28;19929;-76
2022/04/26 05:11:36;;;;;;;;;;;8.50;99.90;;;;;;5013176;28;20297;-76
2022/04/26 05:14:03;;;;;;;;;;;8.50;99.90;;;;;;5029545;28;19933;-75
2022/04/26 05:16:31;;;;;;;;;;;8.40;99.90;;;;;;5029581;28;19933;-76
2022/04/26 05:18:58;;;;;;;;;;;8.20;99.90;;;;;;5029427;28;19925;-75
2022/04/26 05:21:25;;;;;;;;;;;8.20;99.90;;;;;;5029577;28;19926;-76
2022/04/26 05:26:33;;;;;;;;;;;8.00;99.90;;;;;;4981661;28;20003;-76
2022/04/26 05:29:01;;;;;;;;;;;8.00;99.90;;;;;;5030012;28;19933;-77
2022/04/26 05:31:27;;;;;;;;;;;7.90;99.90;;;;;;5030022;28;19956;-77
2022/04/26 05:33:56;;;;;;;;;;;7.90;99.90;;;;;;5029041;28;19972;-76
2022/04/26 05:36:22;;;;;;;;;;;7.90;99.90;;;;;;5027157;28;19930;-76
2022/04/26 05:38:49;;;;;;;;;;;7.90;99.90;;;;;;5013579;28;19925;-74
2022/04/26 05:41:16;;;;;;;;;;;7.90;99.90;;;;;;5013152;28;19925;-76
2022/04/26 05:43:43;;;;;;;;;;;7.80;99.90;;;;;;5029521;28;19925;-77
2022/04/26 05:46:13;;;;;;;;;;;7.80;99.90;;;;;;5012892;28;19925;-76
2022/04/26 05:48:41;;;;;;;;;;;7.80;99.90;;;;;;5029301;28;20320;-76
2022/04/26 05:51:09;;;;;;;;;;;7.80;99.90;;;;;;5012630;28;19932;-76
2022/04/26 05:53:36;;;;;;;;;;;7.90;99.90;;;;;;5028750;28;19925;-77
2022/04/26 05:56:04;;;;;;;;;;;7.90;99.90;;;;;;5029614;28;19925;-76
2022/04/26 05:58:31;;;;;;;;;;;7.90;99.90;;;;;;5029898;28;19925;-76
2022/04/26 06:00:58;;;;;;;;;;;7.90;99.90;;;;;;5029365;28;19926;-74
2022/04/26 06:03:25;;;;;;;;;;;7.80;99.90;;;;;;5028815;28;19925;-75
2022/04/26 06:05:55;;;;;;;;;;;7.90;99.90;;;;;;5028205;28;19930;-76
2022/04/26 06:08:23;;;;;;;;;;;7.90;99.90;;;;;;5028471;28;19948;-77
2022/04/26 06:10:50;;;;;;;;;;;7.90;99.90;;;;;;5027837;28;19926;-75
2022/04/26 06:13:17;;;;;;;;;;;7.80;99.90;;;;;;5028219;28;20356;-76
2022/04/26 06:15:44;;;;;;;;;;;7.80;99.90;;;;;;5011435;28;19929;-77
2022/04/26 06:18:11;;;;;;;;;;;7.80;99.90;;;;;;5024805;28;20286;-76
2022/04/26 06:20:38;;;;;;;;;;;7.80;99.90;;;;;;5022725;28;19925;-76
2022/04/26 06:23:05;;;;;;;;;;;7.90;99.90;;;;;;5027598;28;19926;-76
2022/04/26 06:25:36;;;;;;;;;;;7.80;99.90;;;;;;5027787;28;19932;-76
2022/04/26 06:28:04;;;;;;;;;;;7.90;99.90;;;;;;5029500;28;19930;-76
2022/04/26 06:30:30;;;;;;;;;;;7.80;99.90;;;;;;5028108;28;20377;-76
2022/04/26 06:32:57;;;;;;;;;;;7.80;99.90;;;;;;5028060;28;19925;-77
2022/04/26 06:35:25;;;;;;;;;;;7.80;99.90;;;;;;5028074;28;19925;-76
2022/04/26 06:37:52;;;;;;;;;;;7.70;99.90;;;;;;5028025;28;19932;-76
2022/04/26 06:40:19;;;;;;;;;;;7.70;99.90;;;;;;5027769;28;19926;-76
2022/04/26 06:42:47;;;;;;;;;;;7.70;99.90;;;;;;5027799;28;19926;-74
2022/04/26 06:45:14;;;;;;;;;;;7.70;99.90;;;;;;5007647;28;19929;-75
2022/04/26 06:47:42;;;;;;;;;;;7.70;99.90;;;;;;5026661;28;19926;-76
2022/04/26 06:50:09;;;;;;;;;;;7.70;99.90;;;;;;5027086;28;20308;-76
2022/04/26 06:52:36;;;;;;;;;;;7.70;99.90;;;;;;5027419;28;19925;-76
2022/04/26 06:55:03;;;;;;;;;;;7.80;99.90;;;;;;5027575;28;19929;-76
2022/04/26 06:57:30;;;;;;;;;;;7.80;99.90;;;;;;5027883;28;19945;-76
2022/04/26 06:59:59;;;;;;;;;;;7.80;99.90;;;;;;5011848;28;19925;-76
2022/04/26 07:02:26;;;;;;;;;;;7.80;99.90;;;;;;5028880;28;19930;-76
2022/04/26 07:04:52;;;;;;;;;;;7.80;99.90;;;;;;5028290;28;19925;-76
2022/04/26 07:07:19;;;;;;;;;;;7.80;99.90;;;;;;5029128;28;19926;-76
2022/04/26 07:09:46;;;;;;;;;;;7.80;99.90;;;;;;5028002;28;19926;-75
2022/04/26 07:12:13;;;;;;;;;;;7.80;99.90;;;;;;5027334;28;19930;-75
2022/04/26 07:14:39;;;;;;;;;;;7.90;99.90;;;;;;5027824;28;20347;-75
2022/04/26 07:17:08;;;;;;;;;;;8.00;99.90;;;;;;5028022;28;19996;-76
2022/04/26 07:19:34;;;;;;;;;;;8.00;99.90;;;;;;5027790;28;19925;-74
2022/04/26 07:22:02;;;;;;;;;;;8.10;99.90;;;;;;5025455;28;19925;-76
2022/04/26 07:24:28;;;;;;;;;;;8.10;99.90;;;;;;5006468;28;20033;-75
2022/04/26 07:26:55;;;;;;;;;;;8.10;99.90;;;;;;5027053;28;19929;-75
2022/04/26 07:29:22;;;;;;;;;;;8.20;99.90;;;;;;5026577;28;19961;-75
2022/04/26 07:31:49;;;;;;;;;;;8.20;99.90;;;;;;5026718;28;19933;-76
2022/04/26 07:34:22;;;;;;;;;;;8.20;99.90;;;;;;5026409;28;19933;-74
2022/04/26 07:36:49;;;;;;;;;;;8.20;99.90;;;;;;5010919;28;19929;-73
2022/04/26 07:39:17;;;;;;;;;;;8.30;99.90;;;;;;5026387;28;19933;-74
2022/04/26 07:41:45;;;;;;;;;;;8.30;99.90;;;;;;5010534;28;19932;-73
2022/04/26 07:44:12;;;;;;;;;;;8.40;99.90;;;;;;5026305;28;20340;-73
2022/04/26 07:46:39;;;;;;;;;;;8.50;99.90;;;;;;5010237;28;19926;-73
2022/04/26 07:49:06;;;;;;;;;;;8.60;99.90;;;;;;5009873;28;19934;-73
2022/04/26 07:51:34;;;;;;;;;;;8.70;99.90;;;;;;5026668;28;19925;-73
2022/04/26 07:54:01;;;;;;;;;;;8.80;99.90;;;;;;5026199;28;19997;-75
2022/04/26 07:56:28;;;;;;;;;;;8.90;99.90;;;;;;5010485;28;19933;-71
2022/04/26 07:58:58;;;;;;;;;;;9.00;99.90;;;;;;5027077;28;19953;-74
2022/04/26 08:01:24;;;;;;;;;;;9.00;99.90;;;;;;5026736;28;19953;-74
2022/04/26 08:03:51;;;;;;;;;;;8.90;99.90;;;;;;5009666;28;19934;-75
2022/04/26 08:06:18;;;;;;;;;;;8.90;99.90;;;;;;5026755;28;20374;-76
2022/04/26 08:08:47;;;;;;;;;;;8.90;99.90;;;;;;5026448;28;19930;-73
2022/04/26 08:11:13;;;;;;;;;;;8.90;99.90;;;;;;5026735;28;19973;-74
2022/04/26 08:13:41;;;;;;;;;;;8.90;99.90;;;;;;5025232;28;20622;-73
2022/04/26 08:16:08;;;;;;;;;;;8.80;99.90;;;;;;5003885;28;20021;-74
2022/04/26 08:18:35;;;;;;;;;;;8.80;99.90;;;;;;5025472;28;19936;-74
2022/04/26 08:21:01;;;;;;;;;;;8.80;99.90;;;;;;5006134;28;19925;-74
2022/04/26 08:23:30;;;;;;;;;;;8.80;99.90;;;;;;5006938;28;19925;-74
2022/04/26 08:28:43;;;;;;;;;;;9.00;99.90;;;;;;5012944;28;19926;-74
2022/04/26 08:31:10;;;;;;;;;;;9.00;99.90;;;;;;5006560;28;19926;-75
2022/04/26 08:33:37;;;;;;;;;;;9.00;99.90;;;;;;5026846;28;19930;-75
2022/04/26 08:36:05;;;;;;;;;;;9.00;99.90;;;;;;5025048;28;19926;-75
2022/04/26 08:38:32;;;;;;;;;;;9.00;99.90;;;;;;5010144;28;19926;-75
2022/04/26 08:41:00;;;;;;;;;;;8.90;99.90;;;;;;5026524;28;19925;-75
2022/04/26 08:43:33;;;;;;;;;;;8.90;99.90;;;;;;5027901;28;20282;-75
2022/04/26 08:46:02;;;;;;;;;;;8.90;99.90;;;;;;5030123;28;19948;-75
2022/04/26 08:51:13;;;;;;;;;;;8.90;99.90;;;;;;5013830;28;19975;-75
2022/04/26 08:53:40;;;;;;;;;;;8.90;99.90;;;;;;5029553;28;19926;-74
2022/04/26 08:56:08;;;;;;;;;;;8.90;99.90;;;;;;5030021;28;19933;-74
2022/04/26 08:58:35;;;;;;;;;;;8.80;99.90;;;;;;5029830;28;19929;-75
2022/04/26 09:01:10;;;;;;;;;;;8.80;99.90;;;;;;5029782;28;19962;-75
2022/04/26 09:03:37;;;;;;;;;;;8.80;99.90;;;;;;5029694;28;19925;-75
2022/04/26 09:06:08;;;;;;;;;;;8.70;99.90;;;;;;5030082;28;19932;-74
2022/04/26 09:08:36;;;;;;;;;;;8.70;99.90;;;;;;5013061;28;19929;-75
2022/04/26 09:11:03;;;;;;;;;;;8.80;99.90;;;;;;5029075;28;19949;-75
2022/04/26 09:13:41;;;;;;;;;;;8.80;99.90;;;;;;5029235;28;19925;-75
2022/04/26 09:16:16;;;;;;;;;;;8.90;99.90;;;;;;5013063;28;20343;-75
2022/04/26 09:18:50;;;;;;;;;;;8.90;99.90;;;;;;5029138;28;19933;-75
2022/04/26 09:21:16;;;;;;;;;;;8.90;99.90;;;;;;5029137;28;19937;-75
2022/04/26 09:23:44;;;;;;;;;;;9.00;99.90;;;;;;5028802;28;19980;-75
2022/04/26 09:26:12;;;;;;;;;;;9.00;99.90;;;;;;5029206;28;20341;-75
2022/04/26 09:28:42;;;;;;;;;;;9.00;99.90;;;;;;5012656;28;19933;-75
2022/04/26 09:31:19;;;;;;;;;;;9.00;99.90;;;;;;5012381;28;19925;-75
2022/04/26 09:33:51;;;;;;;;;;;9.10;99.90;;;;;;5028739;28;19925;-76
2022/04/26 09:36:19;;;;;;;;;;;9.10;99.90;;;;;;5029582;28;19925;-75
2022/04/26 09:38:49;;;;;;;;;;;9.10;99.90;;;;;;5025213;28;19936;-75
2022/04/26 09:41:16;;;;;;;;;;;9.20;99.90;;;;;;5012297;28;19926;-76
2022/04/26 09:43:45;;;;;;;;;;;9.30;99.90;;;;;;5028673;28;19925;-76
2022/04/26 09:46:12;;;;;;;;;;;9.40;99.90;;;;;;5028840;28;19926;-76
2022/04/26 09:48:39;;;;;;;;;;;9.50;99.90;;;;;;5012392;28;19940;-76
2022/04/26 09:51:08;;;;;;;;;;;9.60;99.90;;;;;;5012160;28;19925;-75
2022/04/26 09:53:35;;;;;;;;;;;9.70;99.90;;;;;;5024252;28;19929;-77
2022/04/26 09:56:04;;;;;;;;;;;9.70;99.90;;;;;;5011927;28;20403;-76
2022/04/26 09:58:31;;;;;;;;;;;9.90;99.90;;;;;;5012129;28;19926;-76
2022/04/26 10:01:04;;;;;;;;;;;9.90;99.90;;;;;;5028202;28;19929;-76
2022/04/26 10:03:32;;;;;;;;;;;10.00;99.90;;;;;;5004169;28;19926;-76
2022/04/26 10:06:03;;;;;;;;;;;10.10;99.90;;;;;;5029215;28;19933;-76
2022/04/26 10:08:32;;;;;;;;;;;10.20;99.90;;;;;;5029036;28;19926;-75
2022/04/26 10:11:00;;;;;;;;;;;10.20;99.90;;;;;;5028672;28;19932;-76
2022/04/26 10:13:35;;;;;;;;;;;10.20;99.90;;;;;;5028500;28;19935;-77
2022/04/26 10:16:05;;;;;;;;;;;10.20;99.90;;;;;;5028175;28;19926;-76
2022/04/26 10:18:33;;;;;;;;;;;10.30;99.90;;;;;;5011196;28;19953;-76
2022/04/26 10:21:00;;;;;;;;;;;10.30;99.90;;;;;;5022448;28;19930;-78
2022/04/26 10:23:27;;;;;;;;;;;10.20;99.90;;;;;;4991657;28;19929;-74
2022/04/26 10:26:13;;;;;;;;;;;10.30;99.90;;;;;;5024275;28;19925;-76
2022/04/26 10:28:49;;;;;;;;;;;10.40;99.90;;;;;;5024476;28;19952;-75
2022/04/26 10:31:18;;;;;;;;;;;10.40;99.90;;;;;;5007430;28;19964;-76
2022/04/26 10:33:46;;;;;;;;;;;10.50;99.90;;;;;;5011375;28;19930;-76
2022/04/26 10:36:32;;;;;;;;;;;10.50;99.90;;;;;;5012068;28;19940;-76
2022/04/26 10:39:14;;;;;;;;;;;10.50;99.90;;;;;;5011035;28;19929;-76
2022/04/26 10:41:41;;;;;;;;;;;10.60;99.90;;;;;;4998020;28;19933;-75
2022/04/26 10:44:27;;;;;;;;;;;10.70;99.90;;;;;;5026831;28;19948;-76
2022/04/26 10:47:18;;;;;;;;;;;10.60;99.90;;;;;;5010190;28;20027;-76
2022/04/26 10:49:47;;;;;;;;;;;10.70;99.90;;;;;;5010167;28;19926;-76
2022/04/26 10:52:35;;;;;;;;;;;10.70;99.90;;;;;;5011162;28;19926;-75
2022/04/26 10:55:03;;;;;;;;;;;10.80;99.90;;;;;;5027962;28;19929;-75
2022/04/26 10:57:31;;;;;;;;;;;10.90;99.90;;;;;;5028429;28;19969;-75
2022/04/26 10:59:59;;;;;;;;;;;11.00;99.90;;;;;;5028824;28;19933;-76
2022/04/26 11:02:27;;;;;;;;;;;11.10;99.90;;;;;;5028123;28;19994;-76
2022/04/26 11:04:58;;;;;;;;;;;11.10;99.90;;;;;;5027728;28;20417;-75
2022/04/26 11:07:27;;;;;;;;;;;11.00;99.90;;;;;;5027892;28;19925;-75
2022/04/26 11:09:54;;;;;;;;;;;11.00;99.90;;;;;;5027415;28;19932;-75
2022/04/26 11:12:22;;;;;;;;;;;11.00;99.90;;;;;;5028177;28;19987;-76
2022/04/26 11:14:50;;;;;;;;;;;11.10;99.90;;;;;;5027288;28;19956;-76
2022/04/26 11:17:18;;;;;;;;;;;11.20;99.90;;;;;;5027705;28;20019;-76
2022/04/26 11:19:48;;;;;;;;;;;11.10;99.90;;;;;;5027043;28;19933;-76
2022/04/26 11:22:17;;;;;;;;;;;11.10;99.90;;;;;;5027064;28;20008;-75
2022/04/26 11:30:22;;;;;;;;;;;11.00;99.90;;;;;;5031988;28;19932;-73
2022/04/26 11:32:49;;;;;;;;;;;11.10;99.90;;;;;;5032870;28;20397;-75
2022/04/26 11:35:17;;;;;;;;;;;11.10;99.90;;;;;;5030791;28;19925;-74
2022/04/26 11:37:45;;;;;;;;;;;11.10;99.90;;;;;;5047872;28;19928;-74
2022/04/26 11:40:12;;;;;;;;;;;11.10;99.90;;;;;;5031347;28;19925;-74
2022/04/26 11:42:39;;;;;;;;;;;11.10;99.90;;;;;;5048168;28;20342;-74
2022/04/26 11:45:07;;;;;;;;;;;11.00;99.90;;;;;;5047605;28;19925;-74
2022/04/26 11:47:41;;;;;;;;;;;11.20;99.90;;;;;;5047952;28;19932;-74
2022/04/26 11:50:08;;;;;;;;;;;11.40;99.90;;;;;;5032998;28;19933;-74
2022/04/26 11:52:35;;;;;;;;;;;11.60;99.90;;;;;;5030771;28;19925;-73
2022/04/26 11:55:04;;;;;;;;;;;11.60;99.90;;;;;;5046667;28;19924;-73
2022/04/26 11:57:31;;;;;;;;;;;11.70;99.90;;;;;;5050593;28;19965;-75
2022/04/26 11:59:58;;;;;;;;;;;11.70;99.90;;;;;;5065483;28;20303;-74
2022/04/26 12:02:25;;;;;;;;;;;11.80;99.90;;;;;;5072387;28;19925;-74
2022/04/26 12:04:52;;;;;;;;;;;11.90;99.90;;;;;;5066673;28;19925;-74
2022/04/26 12:07:20;;;;;;;;;;;12.10;99.90;;;;;;5067109;28;19983;-74
2022/04/26 12:09:47;;;;;;;;;;;12.20;99.90;;;;;;5067987;28;19944;-74
2022/04/26 12:12:15;;;;;;;;;;;12.30;99.90;;;;;;5047674;28;19931;-74
2022/04/26 12:14:43;;;;;;;;;;;12.50;99.90;;;;;;5040179;28;20389;-74
2022/04/26 12:17:18;;;;;;;;;;;12.60;99.90;;;;;;5043035;28;19925;-74
2022/04/26 12:19:50;;;;;;;;;;;12.70;99.90;;;;;;5048520;28;19925;-76
2022/04/26 12:22:17;;;;;;;;;;;12.80;99.90;;;;;;5043847;28;19976;-74
2022/04/26 12:24:47;;;;;;;;;;;12.90;99.90;;;;;;5034695;28;19979;-76
2022/04/26 12:27:16;;;;;;;;;;;13.10;99.90;;;;;;5035046;28;20352;-77
2022/04/26 12:29:44;;;;;;;;;;;13.30;99.90;;;;;;5035262;28;19925;-77
2022/04/26 12:32:12;;;;;;;;;;;13.60;99.90;;;;;;5034383;28;19925;-76
2022/04/26 12:34:47;;;;;;;;;;;13.80;99.90;;;;;;5032856;28;19925;-76
2022/04/26 12:37:20;;;;;;;;;;;14.00;99.90;;;;;;5032954;28;20311;-76
2022/04/26 12:39:48;;;;;;;;;;;14.00;99.90;;;;;;5033199;28;19929;-76
2022/04/26 12:42:17;;;;;;;;;;;14.20;99.90;;;;;;5033514;28;20315;-76
2022/04/26 12:44:51;;;;;;;;;;;14.40;99.90;;;;;;5032379;28;19926;-75
2022/04/26 12:52:49;;;;;;;;;;;15.40;99.90;;;;;;5036347;28;19924;-74
2022/04/26 12:55:24;;;;;;;;;;;15.60;99.90;;;;;;5033323;28;19928;-73
2022/04/26 12:57:53;;;;;;;;;;;15.90;99.90;;;;;;5033589;28;20027;-74
2022/04/26 13:00:20;;;;;;;;;;;16.30;99.90;;;;;;5033362;28;19929;-75
2022/04/26 13:02:48;;;;;;;;;;;16.50;99.90;;;;;;5033683;28;19925;-75
2022/04/26 13:05:15;;;;;;;;;;;16.20;99.90;;;;;;5033782;28;19925;-76
2022/04/26 13:07:42;;;;;;;;;;;15.70;99.90;;;;;;5034426;28;20023;-76
2022/04/26 13:10:09;;;;;;;;;;;15.60;99.90;;;;;;5033960;28;19925;-75
2022/04/26 13:12:35;;;;;;;;;;;16.40;99.90;;;;;;5033533;28;19932;-75
2022/04/26 13:15:04;;;;;;;;;;;17.60;99.90;;;;;;5033301;28;19925;-75
2022/04/26 13:17:31;;;;;;;;;;;18.20;99.90;;;;;;5033211;28;19929;-74
2022/04/26 13:19:57;;;;;;;;;;;17.80;99.90;;;;;;5033292;28;19925;-74
2022/04/26 13:22:24;;;;;;;;;;;17.40;99.90;;;;;;5033524;28;19925;-74
2022/04/26 13:24:51;;;;;;;;;;;17.30;99.90;;;;;;5032578;28;19984;-75
2022/04/26 13:27:18;;;;;;;;;;;17.10;99.90;;;;;;5033342;28;19940;-74
2022/04/26 13:29:45;;;;;;;;;;;17.50;99.90;;;;;;5036921;28;20359;-74
2022/04/26 13:32:14;;;;;;;;;;;18.10;99.90;;;;;;5065863;28;19925;-74
2022/04/26 13:34:40;;;;;;;;;;;18.60;99.90;;;;;;5069100;28;19928;-74
2022/04/26 13:37:07;;;;;;;;;;;19.70;99.90;;;;;;5069834;28;19931;-74
2022/04/26 13:39:35;;;;;;;;;;;20.10;99.90;;;;;;5069188;28;19924;-74
2022/04/26 13:42:01;;;;;;;;;;;20.40;99.90;;;;;;5069706;28;19924;-74
2022/04/26 13:44:28;;;;;;;;;;;21.30;99.90;;;;;;5069234;28;19943;-74
2022/04/26 13:46:55;;;;;;;;;;;21.80;99.90;;;;;;5052437;28;19979;-72
2022/04/26 13:49:23;;;;;;;;;;;20.70;99.90;;;;;;5069117;28;19936;-74
2022/04/26 13:51:50;;;;;;;;;;;19.30;99.90;;;;;;5069745;28;19928;-75
2022/04/26 13:54:17;;;;;;;;;;;18.20;99.90;;;;;;5045168;28;19925;-76
2022/04/26 13:56:44;;;;;;;;;;;17.40;99.90;;;;;;5042004;28;19933;-76
2022/04/26 13:59:11;;;;;;;;;;;17.30;99.90;;;;;;5057701;28;19929;-76
2022/04/26 14:01:38;;;;;;;;;;;18.10;99.90;;;;;;5049549;28;20277;-76
2022/04/26 14:04:05;;;;;;;;;;;19.20;99.90;;;;;;5068859;28;19925;-76
2022/04/26 14:06:34;;;;;;;;;;;20.30;99.90;;;;;;5068963;28;19929;-75
2022/04/26 14:09:00;;;;;;;;;;;20.80;99.90;;;;;;5068528;28;19979;-76
2022/04/26 14:11:27;;;;;;;;;;;20.90;99.90;;;;;;5068645;28;19933;-76
2022/04/26 14:22:08;;;;;;;;;;;20.60;99.90;;;;;;5055310;28;19921;-83
2022/04/26 14:24:35;;;;;;;;;;;19.50;99.90;;;;;;5068284;28;19924;-76
2022/04/26 14:27:02;;;;;;;;;;;18.70;99.90;;;;;;5048916;28;19929;-76
2022/04/26 14:29:29;;;;;;;;;;;18.10;99.90;;;;;;5068361;28;19991;-77
2022/04/26 14:31:56;;;;;;;;;;;17.80;99.90;;;;;;5064931;28;19946;-75
2022/04/26 14:34:22;;;;;;;;;;;17.40;99.90;;;;;;5054948;28;19928;-76
2022/04/26 14:36:49;;;;;;;;;;;17.00;99.90;;;;;;5045419;28;19929;-76
2022/04/26 14:39:17;;;;;;;;;;;16.50;99.90;;;;;;5038278;28;19972;-76
2022/04/26 14:41:44;;;;;;;;;;;16.20;99.90;;;;;;5042289;28;19925;-76
2022/04/26 14:44:12;;;;;;;;;;;16.00;99.90;;;;;;5053417;28;19933;-76
2022/04/26 14:46:38;;;;;;;;;;;15.90;99.90;;;;;;5042213;28;19937;-76
2022/04/26 14:49:06;;;;;;;;;;;15.80;99.90;;;;;;5041312;28;19932;-75
2022/04/26 14:51:33;;;;;;;;;;;15.80;99.90;;;;;;5045199;28;19924;-76
2022/04/26 14:54:00;;;;;;;;;;;15.70;99.90;;;;;;5055932;28;19924;-76
2022/04/26 14:56:28;;;;;;;;;;;15.70;99.90;;;;;;5047326;28;19925;-79
2022/04/26 14:58:55;;;;;;;;;;;15.70;99.90;;;;;;5038773;28;19925;-79
2022/04/26 15:01:22;;;;;;;;;;;15.60;99.90;;;;;;5049578;28;20388;-77
2022/04/26 15:03:48;;;;;;;;;;;15.40;99.90;;;;;;5061096;28;19929;-77
2022/04/26 15:06:15;;;;;;;;;;;15.40;99.90;;;;;;5040779;28;20363;-76
2022/04/26 15:11:28;;;;;;;;;;;15.50;99.90;;;;;;5044307;28;19925;-77
2022/04/26 15:16:39;;;;;;;;;;;15.70;99.90;;;;;;5067908;28;19982;-76
2022/04/26 15:19:06;;;;;;;;;;;15.80;99.90;;;;;;5067759;28;19925;-76
2022/04/26 15:21:33;;;;;;;;;;;15.80;99.90;;;;;;5065076;28;19979;-76
2022/04/26 15:24:00;;;;;;;;;;;15.90;99.90;;;;;;5037545;28;19933;-75
2022/04/26 15:26:28;;;;;;;;;;;15.90;99.90;;;;;;5047635;28;19924;-75
2022/04/26 15:28:55;;;;;;;;;;;16.00;99.90;;;;;;5053943;28;19952;-74
2022/04/26 15:31:22;;;;;;;;;;;16.30;99.90;;;;;;5050419;28;19951;-75
2022/04/26 15:33:50;;;;;;;;;;;17.10;99.90;;;;;;5066669;28;19929;-75
2022/04/26 15:36:18;;;;;;;;;;;17.50;99.90;;;;;;5066982;28;19932;-75
2022/04/26 15:38:45;;;;;;;;;;;17.60;99.90;;;;;;5055661;28;19932;-75
2022/04/26 15:41:12;;;;;;;;;;;17.50;99.90;;;;;;5035811;28;19929;-75
2022/04/26 15:43:41;;;;;;;;;;;17.60;99.90;;;;;;5056018;28;19928;-76
2022/04/26 15:46:09;;;;;;;;;;;17.40;99.90;;;;;;5029874;28;19929;-76
2022/04/26 15:48:39;;;;;;;;;;;17.30;99.90;;;;;;5031600;28;19983;-76
2022/04/26 15:51:06;;;;;;;;;;;17.10;99.90;;;;;;5046229;28;19932;-75
2022/04/26 15:53:33;;;;;;;;;;;16.90;99.90;;;;;;5059684;28;19929;-76
2022/04/26 15:56:00;;;;;;;;;;;16.70;99.90;;;;;;5053622;28;19929;-77
2022/04/26 15:58:26;;;;;;;;;;;16.50;99.90;;;;;;5070398;28;19925;-77
2022/04/26 16:00:57;;;;;;;;;;;16.20;99.90;;;;;;5070607;28;19932;-77
2022/04/26 16:03:23;;;;;;;;;;;16.00;99.90;;;;;;5070308;28;19925;-77
2022/04/26 16:05:50;;;;;;;;;;;15.90;99.90;;;;;;5070302;28;19925;-76
2022/04/26 16:08:17;;;;;;;;;;;15.70;99.90;;;;;;5070597;28;19924;-77
2022/04/26 16:21:43;;;;;;;;;;;16.40;99.90;;;;;;5051157;28;19929;-76
2022/04/26 16:24:10;;;;;;;;;;;16.80;99.90;;;;;;5060045;28;19932;-76
2022/04/26 16:26:36;;;;;;;;;;;17.30;99.90;;;;;;5056240;28;20315;-76
2022/04/26 16:29:07;;;;;;;;;;;17.30;99.90;;;;;;5070587;28;20006;-76
2022/04/26 16:31:35;;;;;;;;;;;17.00;99.90;;;;;;5071763;28;20399;-77
2022/04/26 16:34:03;;;;;;;;;;;16.60;99.90;;;;;;5069176;28;20400;-77
2022/04/26 16:36:30;;;;;;;;;;;16.40;99.90;;;;;;5069916;28;19925;-78
2022/04/26 16:38:58;;;;;;;;;;;16.10;99.90;;;;;;5063600;28;19924;-77
2022/04/26 16:41:25;;;;;;;;;;;15.90;99.90;;;;;;5056684;28;19936;-75
2022/04/26 16:43:51;;;;;;;;;;;15.80;99.90;;;;;;5061874;28;19929;-75
2022/04/26 16:46:19;;;;;;;;;;;15.70;99.90;;;;;;5059643;28;19928;-76
2022/04/26 16:48:48;;;;;;;;;;;15.70;99.90;;;;;;5048406;28;19932;-76
2022/04/26 16:51:15;;;;;;;;;;;15.60;99.90;;;;;;5047911;28;20366;-75
2022/04/26 16:53:44;;;;;;;;;;;15.40;99.90;;;;;;5042582;28;19964;-77
2022/04/26 16:56:10;;;;;;;;;;;15.00;99.90;;;;;;5058835;28;20294;-77
2022/04/26 16:58:38;;;;;;;;;;;14.60;99.90;;;;;;5068905;28;19932;-76
2022/04/26 17:01:05;;;;;;;;;;;14.00;99.90;;;;;;5039786;28;19925;-77
2022/04/26 17:03:32;;;;;;;;;;;13.90;99.90;;;;;;5054616;28;19925;-76
2022/04/26 17:06:01;;;;;;;;;;;13.80;99.90;;;;;;5062380;28;19932;-76
2022/04/26 17:08:28;;;;;;;;;;;13.80;99.90;;;;;;5046342;28;19925;-76
2022/04/26 17:11:41;;;;;;;;;;;13.70;99.90;;;;;;5050158;28;19925;-77
2022/04/26 17:13:42;;;;;;;;;;;13.60;99.90;;;;;;5047684;28;20289;-76
2022/04/26 17:16:09;;;;;;;;;;;13.50;99.90;;;;;;5061575;28;19960;-75
2022/04/26 17:18:36;;;;;;;;;;;13.10;99.90;;;;;;5040846;28;19932;-78
2022/04/26 17:21:04;;;;;;;;;;;12.90;99.90;;;;;;5036081;28;19925;-77
2022/04/26 17:23:31;;;;;;;;;;;12.70;99.90;;;;;;5043537;28;19948;-77
2022/04/26 17:25:59;;;;;;;;;;;12.80;99.90;;;;;;5050458;28;19929;-77
2022/04/26 17:28:25;;;;;;;;;;;12.80;99.90;;;;;;5041715;28;19925;-77
2022/04/26 17:30:52;;;;;;;;;;;12.80;99.90;;;;;;5042217;28;19929;-75
2022/04/26 17:33:19;;;;;;;;;;;12.70;99.90;;;;;;5049017;28;19925;-74
2022/04/26 17:35:46;;;;;;;;;;;12.60;99.90;;;;;;5047704;28;19929;-75
2022/04/26 17:38:14;;;;;;;;;;;12.50;99.90;;;;;;5040419;28;19925;-75
2022/04/26 17:40:41;;;;;;;;;;;12.50;99.90;;;;;;5051767;28;19929;-75
2022/04/26 17:43:08;;;;;;;;;;;12.60;99.90;;;;;;5036120;28;19932;-76
2022/04/26 17:45:35;;;;;;;;;;;12.60;99.90;;;;;;5044621;28;19968;-75
2022/04/26 17:48:01;;;;;;;;;;;12.50;99.90;;;;;;5043577;28;20153;-76
2022/04/26 17:50:28;;;;;;;;;;;12.50;99.90;;;;;;5046240;28;19932;-76
2022/04/26 17:58:25;;;;;;;;;;;12.30;99.90;;;;;;5048357;28;19932;-76
2022/04/26 18:00:52;;;;;;;;;;;12.40;99.90;;;;;;5038621;28;19924;-77
2022/04/26 18:03:21;;;;;;;;;;;12.40;99.90;;;;;;5046113;28;20396;-76
2022/04/26 18:05:49;;;;;;;;;;;12.50;99.90;;;;;;5050183;28;19925;-76
2022/04/26 18:08:16;;;;;;;;;;;12.50;99.90;;;;;;5050207;28;19940;-76
2022/04/26 18:10:45;;;;;;;;;;;12.60;99.90;;;;;;5038585;28;19931;-75
2022/04/26 18:13:11;;;;;;;;;;;12.50;99.90;;;;;;5062291;28;19924;-75
2022/04/26 18:15:39;;;;;;;;;;;12.30;99.90;;;;;;5036947;28;20028;-75
2022/04/26 18:18:06;;;;;;;;;;;12.20;99.90;;;;;;5049046;28;19931;-74
2022/04/26 18:20:33;;;;;;;;;;;12.10;99.90;;;;;;5036920;28;19932;-75
2022/04/26 18:23:00;;;;;;;;;;;12.10;99.90;;;;;;5043288;28;19926;-75
2022/04/26 18:28:09;;;;;;;;;;;12.00;99.90;;;;;;5041929;28;20378;-74
2022/04/26 18:30:36;;;;;;;;;;;11.90;99.90;;;;;;5048417;28;20358;-74
2022/04/26 18:33:03;;;;;;;;;;;11.80;99.90;;;;;;5045765;28;20354;-75
2022/04/26 18:35:30;;;;;;;;;;;11.80;99.90;;;;;;5053866;28;19929;-75
2022/04/26 18:37:57;;;;;;;;;;;11.70;99.90;;;;;;5052138;28;19979;-75
2022/04/26 18:40:25;;;;;;;;;;;11.60;99.90;;;;;;5052257;28;19932;-74
2022/04/26 18:42:51;;;;;;;;;;;11.50;99.90;;;;;;5054377;28;19988;-75
2022/04/26 18:45:23;;;;;;;;;;;11.40;99.90;;;;;;5052122;28;20388;-75
2022/04/26 18:47:49;;;;;;;;;;;11.40;99.90;;;;;;5048714;28;19928;-73
2022/04/26 18:50:16;;;;;;;;;;;11.30;99.90;;;;;;5043397;28;19925;-73
2022/04/26 18:52:43;;;;;;;;;;;11.20;99.90;;;;;;5054407;28;19933;-73
2022/04/26 18:55:10;;;;;;;;;;;11.20;99.90;;;;;;5047584;28;20296;-73
2022/04/26 18:57:37;;;;;;;;;;;11.20;99.90;;;;;;5055008;28;19925;-73